Terminal Aerodrome Forecast
Issued by NWS Sterling, VA

Home | Current Version | Previous Version | Text Only | Print | Product List | Glossary On
Versions: 1 2 3 4 5 6 7 8 9 10 11 12 13 14 15 16 17 18 19 20
347
FTUS41 KLWX 291510 AAA
TAFDCA
TAF AMD
KDCA 291510Z 2915/3012 17007KT P6SM BKN150
     FM292100 15007KT P6SM -SHRA BKN035 OVC090
     FM292300 16005KT 4SM SHRA OVC020
     FM300500 17004KT 6SM -SHRA BR OVC020=

USA.gov is the U.S. government's official web portal to all federal, state and local government web resources and services.